createdAt,value
2018-08-24T00:00:31.324Z,24.88
2018-08-24T00:03:00.726Z,24.77
2018-08-24T00:05:30.233Z,24.76
2018-08-24T00:07:59.633Z,24.74
2018-08-24T00:10:28.868Z,24.72
2018-08-24T00:12:58.336Z,24.70
2018-08-24T00:15:27.635Z,24.68
2018-08-24T00:17:57.036Z,24.60
2018-08-24T00:20:26.440Z,24.46
2018-08-24T00:22:55.735Z,24.37
2018-08-24T00:25:25.038Z,24.47
2018-08-24T00:27:54.264Z,24.42
2018-08-24T00:30:23.638Z,24.51
2018-08-24T00:32:53.142Z,24.22
2018-08-24T00:35:22.440Z,24.02
2018-08-24T00:37:52.049Z,24.04
2018-08-24T00:40:21.454Z,23.83
2018-08-24T00:42:50.909Z,23.89
2018-08-24T00:45:20.135Z,23.88
2018-08-24T00:47:49.404Z,24.01
2018-08-24T00:50:18.606Z,23.82
2018-08-24T00:52:48.058Z,23.72
2018-08-24T00:55:17.391Z,23.62
2018-08-24T00:57:46.859Z,23.61
2018-08-24T01:00:16.363Z,23.54
2018-08-24T01:02:45.944Z,23.57
2018-08-24T01:05:15.370Z,23.56
2018-08-24T01:07:49.949Z,23.35
2018-08-24T01:10:24.619Z,23.23
2018-08-24T01:12:54.533Z,23.21
2018-08-24T01:15:23.832Z,23.05
2018-08-24T01:17:58.356Z,22.95
2018-08-24T01:20:30.726Z,22.59
2018-08-24T01:23:00.334Z,22.31
2018-08-24T01:25:29.635Z,22.18
2018-08-24T01:27:58.928Z,22.11
2018-08-24T01:30:28.241Z,21.92
2018-08-24T01:32:57.635Z,21.74
2018-08-24T01:35:26.932Z,21.64
2018-08-24T01:37:56.231Z,21.60
2018-08-24T01:40:25.636Z,21.93
2018-08-24T01:42:54.930Z,22.15
2018-08-24T01:45:24.336Z,22.16
2018-08-24T01:47:53.637Z,22.06
2018-08-24T01:50:23.039Z,21.56
2018-08-24T01:52:52.447Z,21.54
2018-08-24T01:55:21.741Z,21.52
2018-08-24T01:57:51.143Z,21.45
2018-08-24T02:00:20.647Z,21.45
2018-08-24T02:02:50.049Z,21.49
2018-08-24T02:05:19.554Z,21.62
2018-08-24T02:07:49.160Z,21.67
2018-08-24T02:10:23.688Z,21.73
2018-08-24T02:12:58.511Z,21.80
2018-08-24T02:15:27.913Z,21.96
2018-08-24T02:18:02.540Z,22.09
2018-08-24T02:20:36.958Z,22.14
2018-08-24T02:23:11.899Z,22.06
2018-08-24T02:25:41.422Z,22.01
2018-08-24T02:28:10.799Z,21.84
2018-08-24T02:30:40.267Z,21.99
2018-08-24T02:33:09.708Z,21.96
2018-08-24T02:35:39.018Z,21.94
2018-08-24T02:38:08.337Z,22.05
2018-08-24T02:40:37.707Z,22.08
2018-08-24T02:43:07.105Z,22.16
2018-08-24T02:45:36.518Z,22.16
2018-08-24T02:48:05.911Z,21.90
2018-08-24T02:50:35.314Z,22.03
2018-08-24T02:53:04.817Z,21.92
2018-08-24T02:55:34.325Z,21.69
2018-08-24T02:58:03.826Z,21.68
2018-08-24T03:00:33.136Z,21.09
2018-08-24T03:03:02.529Z,21.45
2018-08-24T03:05:31.880Z,21.55
2018-08-24T03:08:01.056Z,21.70
2018-08-24T03:10:30.539Z,21.81
2018-08-24T03:12:59.742Z,21.89
2018-08-24T03:15:28.967Z,21.94
2018-08-24T03:17:58.325Z,21.92
2018-08-24T03:20:27.729Z,22.00
2018-08-24T03:22:56.938Z,21.92
2018-08-24T03:25:26.334Z,21.76
2018-08-24T03:27:55.584Z,21.82
2018-08-24T03:30:26.850Z,21.83
2018-08-24T03:32:56.173Z,21.95
2018-08-24T03:35:25.473Z,21.68
2018-08-24T03:37:54.750Z,21.90
2018-08-24T03:40:24.172Z,21.78
2018-08-24T03:42:53.573Z,22.06
2018-08-24T03:45:22.908Z,22.06
2018-08-24T03:47:52.277Z,22.23
2018-08-24T03:50:21.888Z,22.27
2018-08-24T03:52:51.408Z,22.28
2018-08-24T03:55:20.749Z,22.21
2018-08-24T03:57:50.090Z,22.34
2018-08-24T04:00:20.333Z,22.42
2018-08-24T04:02:49.898Z,22.45
2018-08-24T04:05:19.219Z,22.47
2018-08-24T04:07:48.618Z,22.43
2018-08-24T04:10:18.019Z,22.45
2018-08-24T04:12:47.602Z,22.57
2018-08-24T04:15:16.927Z,22.42
2018-08-24T04:17:46.328Z,22.45
2018-08-24T04:20:15.731Z,22.56
2018-08-24T04:22:45.235Z,22.39
2018-08-24T04:25:14.638Z,22.49
2018-08-24T04:27:44.040Z,22.63
2018-08-24T04:30:13.441Z,22.62
2018-08-24T04:32:42.989Z,22.57
2018-08-24T04:35:12.347Z,22.61
2018-08-24T04:37:41.828Z,22.51
2018-08-24T04:40:11.156Z,22.66
2018-08-24T04:42:40.555Z,22.55
2018-08-24T04:45:09.956Z,22.57
2018-08-24T04:47:39.460Z,22.36
2018-08-24T04:50:08.911Z,22.23
2018-08-24T04:52:38.264Z,22.18
2018-08-24T04:55:07.666Z,22.13
2018-08-24T04:57:37.068Z,22.28
2018-08-24T05:00:08.754Z,22.33
2018-08-24T05:02:38.411Z,22.33
2018-08-24T05:05:10.298Z,22.52
2018-08-24T05:07:39.697Z,22.59
2018-08-24T05:10:09.198Z,22.54
2018-08-24T05:12:38.415Z,22.63
2018-08-24T05:15:08.000Z,22.79
2018-08-24T05:17:37.507Z,22.30
2018-08-24T05:20:07.546Z,22.46
2018-08-24T05:22:37.566Z,22.52
2018-08-24T05:25:07.873Z,22.70
2018-08-24T05:27:38.853Z,22.51
2018-08-24T05:30:08.942Z,22.17
2018-08-24T05:32:38.872Z,22.36
2018-08-24T05:35:08.234Z,22.28
2018-08-24T05:37:37.448Z,22.01
2018-08-24T05:40:06.669Z,22.07
2018-08-24T05:42:36.033Z,22.20
2018-08-24T05:45:05.874Z,22.05
2018-08-24T05:47:35.349Z,22.10
2018-08-24T05:50:04.651Z,22.14
2018-08-24T05:52:33.950Z,22.26
2018-08-24T05:55:03.350Z,22.33
2018-08-24T05:57:32.651Z,22.33
2018-08-24T06:00:02.157Z,22.53
2018-08-24T06:02:31.610Z,22.45
2018-08-24T06:05:00.880Z,22.48
2018-08-24T06:07:30.154Z,22.55
2018-08-24T06:09:59.558Z,22.51
2018-08-24T06:12:28.960Z,22.73
2018-08-24T06:14:58.155Z,22.94
2018-08-24T06:17:32.408Z,22.80
2018-08-24T06:20:01.711Z,22.74
2018-08-24T06:22:31.277Z,22.78
2018-08-24T06:25:00.483Z,22.26
2018-08-24T06:27:29.774Z,22.22
2018-08-24T06:29:59.074Z,22.35
2018-08-24T06:32:28.374Z,22.73
2018-08-24T06:34:57.776Z,22.53
2018-08-24T06:37:27.485Z,22.18
2018-08-24T06:39:56.666Z,22.30
2018-08-24T06:42:26.085Z,22.37
2018-08-24T06:44:55.589Z,22.16
2018-08-24T06:47:25.401Z,22.25
2018-08-24T06:49:54.700Z,22.46
2018-08-24T06:52:24.102Z,22.85
2018-08-24T06:54:53.607Z,22.96
2018-08-24T06:57:23.011Z,23.05
2018-08-24T06:59:52.258Z,22.68
2018-08-24T07:02:21.506Z,22.43
2018-08-24T07:04:50.826Z,22.60
2018-08-24T07:07:20.310Z,22.62
2018-08-24T07:09:49.510Z,22.38
2018-08-24T07:12:20.067Z,22.46
2018-08-24T07:14:49.439Z,22.60
2018-08-24T07:17:24.062Z,22.78
2018-08-24T07:19:53.902Z,22.65
2018-08-24T07:22:23.276Z,22.66
2018-08-24T07:24:52.781Z,22.71
2018-08-24T07:27:22.286Z,22.55
2018-08-24T07:29:51.688Z,22.66
2018-08-24T07:32:21.242Z,22.61
2018-08-24T07:34:50.611Z,22.53
2018-08-24T07:37:20.201Z,22.38
2018-08-24T07:39:49.644Z,22.41
2018-08-24T07:42:19.984Z,22.28
2018-08-24T07:44:52.610Z,22.50
2018-08-24T07:47:22.745Z,22.36
2018-08-24T07:49:52.709Z,22.17
2018-08-24T07:52:22.114Z,22.38
2018-08-24T07:54:51.645Z,22.45
2018-08-24T07:57:21.053Z,22.47
2018-08-24T07:59:50.657Z,22.69
2018-08-24T08:02:21.526Z,22.90
2018-08-24T08:04:50.845Z,22.93
2018-08-24T08:07:20.296Z,23.14
2018-08-24T08:09:49.504Z,23.09
2018-08-24T08:12:18.758Z,23.42
2018-08-24T08:14:53.321Z,23.24
2018-08-24T08:17:22.827Z,23.10
2018-08-24T08:19:53.167Z,23.26
2018-08-24T08:22:22.552Z,23.30
2018-08-24T08:24:52.264Z,23.22
2018-08-24T08:27:21.658Z,23.10
2018-08-24T08:29:56.178Z,23.50
2018-08-24T08:32:25.475Z,23.64
2018-08-24T08:34:54.987Z,23.65
2018-08-24T08:37:24.898Z,23.70
2018-08-24T08:39:58.766Z,23.84
2018-08-24T08:42:28.209Z,24.02
2018-08-24T08:44:57.931Z,24.41
2018-08-24T08:47:27.420Z,24.82
2018-08-24T08:49:56.722Z,25.04
2018-08-24T08:52:25.915Z,25.06
2018-08-24T08:54:55.276Z,25.24
2018-08-24T08:57:24.822Z,25.73
2018-08-24T08:59:54.225Z,26.12
2018-08-24T09:02:23.407Z,25.94
2018-08-24T09:04:52.721Z,25.99
2018-08-24T09:07:22.022Z,25.81
2018-08-24T09:09:51.438Z,25.89
2018-08-24T09:12:20.829Z,25.48
2018-08-24T09:14:50.126Z,25.38
2018-08-24T09:17:24.826Z,25.13
2018-08-24T09:19:59.373Z,24.80
2018-08-24T09:22:33.815Z,24.40
2018-08-24T09:25:08.427Z,24.13
2018-08-24T09:28:42.127Z,23.98
2018-08-24T09:31:16.342Z,23.48
2018-08-24T09:33:45.859Z,23.34
2018-08-24T09:36:19.171Z,23.44
2018-08-24T09:38:49.235Z,23.31
2018-08-24T09:41:18.492Z,23.33
2018-08-24T09:43:53.125Z,23.25
2018-08-24T09:46:26.591Z,23.09
2018-08-24T09:49:01.151Z,22.73
2018-08-24T09:51:30.716Z,22.61
2018-08-24T09:54:06.081Z,22.22
2018-08-24T09:56:36.494Z,22.14
2018-08-24T09:59:06.085Z,21.99
2018-08-24T10:01:40.780Z,22.24
2018-08-24T10:04:15.544Z,22.20
2018-08-24T10:06:50.177Z,22.26
2018-08-24T10:09:19.868Z,22.46
2018-08-24T10:11:49.272Z,22.52
2018-08-24T10:14:18.799Z,22.08
2018-08-24T10:16:48.281Z,21.96
2018-08-24T10:19:17.483Z,21.89
2018-08-24T10:21:46.743Z,21.77
2018-08-24T10:24:16.075Z,22.15
2018-08-24T10:26:45.480Z,22.08
2018-08-24T10:29:14.891Z,21.93
2018-08-24T10:31:44.384Z,22.11
2018-08-24T10:34:13.731Z,22.14
2018-08-24T10:36:43.090Z,21.83
2018-08-24T10:39:12.884Z,22.00
2018-08-24T10:41:42.209Z,21.72
2018-08-24T10:44:11.528Z,21.15
2018-08-24T10:46:41.115Z,21.52
2018-08-24T10:49:10.526Z,21.30
2018-08-24T10:51:39.913Z,21.26
2018-08-24T10:54:09.391Z,21.42
2018-08-24T10:56:38.961Z,21.65
2018-08-24T10:59:08.421Z,21.44
2018-08-24T11:01:40.526Z,21.61
2018-08-24T11:04:09.989Z,21.46
2018-08-24T11:06:39.392Z,21.42
2018-08-24T11:09:10.095Z,21.37
2018-08-24T11:11:39.630Z,21.64
2018-08-24T11:14:09.359Z,21.75
2018-08-24T11:16:38.860Z,21.72
2018-08-24T11:19:08.552Z,21.72
2018-08-24T11:21:37.954Z,21.42
2018-08-24T11:24:07.664Z,21.47
2018-08-24T11:26:36.946Z,21.47
2018-08-24T11:29:06.266Z,21.59
2018-08-24T11:31:35.665Z,21.65
2018-08-24T11:34:04.962Z,21.75
2018-08-24T11:36:34.266Z,21.92
2018-08-24T11:39:05.509Z,22.04
2018-08-24T11:41:35.024Z,21.92
2018-08-24T11:44:04.670Z,21.72
2018-08-24T11:46:34.125Z,21.40
2018-08-24T11:49:03.525Z,21.35
2018-08-24T11:51:32.934Z,21.52
2018-08-24T11:54:02.595Z,21.09
2018-08-24T11:56:31.772Z,20.86
2018-08-24T11:59:01.140Z,20.84
2018-08-24T12:01:30.523Z,20.92
2018-08-24T12:03:59.939Z,20.69
2018-08-24T12:06:29.304Z,20.78
2018-08-24T12:08:58.621Z,20.70
2018-08-24T12:11:27.943Z,20.50
2018-08-24T12:13:57.372Z,20.69
2018-08-24T12:16:26.910Z,20.78
2018-08-24T12:18:56.556Z,20.72
2018-08-24T12:21:25.868Z,20.78
2018-08-24T12:23:55.258Z,20.82
2018-08-24T12:26:24.659Z,20.93
2018-08-24T12:28:54.062Z,21.09
2018-08-24T12:31:23.762Z,21.19
2018-08-24T12:33:53.275Z,21.40
2018-08-24T12:36:22.677Z,21.58
2018-08-24T12:38:52.183Z,21.85
2018-08-24T12:41:21.715Z,21.94
2018-08-24T12:43:50.987Z,22.27
2018-08-24T12:46:20.394Z,22.51
2018-08-24T12:48:49.845Z,22.78
2018-08-24T12:51:19.397Z,22.69
2018-08-24T12:53:55.046Z,22.85
2018-08-24T12:56:24.550Z,22.41
2018-08-24T12:58:54.271Z,22.43
2018-08-24T13:01:23.661Z,22.80
2018-08-24T13:03:53.064Z,22.78
2018-08-24T13:06:22.468Z,22.89
2018-08-24T13:08:51.871Z,23.21
2018-08-24T13:11:21.116Z,23.33
2018-08-24T13:13:50.364Z,23.62
2018-08-24T13:16:19.779Z,23.69
2018-08-24T13:18:49.168Z,23.22
2018-08-24T13:21:19.319Z,23.39
2018-08-24T13:23:48.699Z,23.56
2018-08-24T13:26:18.193Z,23.52
2018-08-24T13:28:47.700Z,24.03
2018-08-24T13:31:17.120Z,24.42
2018-08-24T13:33:46.794Z,24.57
2018-08-24T13:36:16.312Z,24.54
2018-08-24T13:38:45.816Z,24.64
2018-08-24T13:41:15.219Z,24.46
2018-08-24T13:43:44.928Z,24.34
2018-08-24T13:46:19.505Z,24.89
2018-08-24T13:48:49.670Z,25.05
2018-08-24T13:51:19.074Z,25.09
2018-08-24T13:53:48.479Z,24.95
2018-08-24T13:56:17.773Z,25.36
2018-08-24T13:58:47.179Z,25.60
2018-08-24T14:01:16.645Z,25.86
2018-08-24T14:03:45.945Z,25.85
2018-08-24T14:06:15.281Z,25.50
2018-08-24T14:08:44.786Z,25.09
2018-08-24T14:11:14.189Z,24.98
2018-08-24T14:13:43.587Z,24.83
2018-08-24T14:16:12.994Z,24.06
2018-08-24T14:18:42.289Z,24.13
2018-08-24T14:21:12.103Z,24.17
2018-08-24T14:23:41.308Z,24.07
2018-08-24T14:26:10.701Z,24.04
2018-08-24T14:28:41.075Z,24.28
2018-08-24T14:31:10.634Z,24.41
2018-08-24T14:33:40.040Z,23.41
2018-08-24T14:36:09.562Z,22.84
2018-08-24T14:38:39.249Z,22.55
2018-08-24T14:41:08.655Z,22.29
2018-08-24T14:43:38.052Z,21.93
2018-08-24T14:46:07.864Z,21.92
2018-08-24T14:48:37.140Z,22.04
2018-08-24T14:51:06.564Z,21.94
2018-08-24T14:53:35.968Z,21.88
2018-08-24T14:56:05.370Z,22.09
2018-08-24T14:58:34.771Z,22.38
2018-08-24T15:01:04.175Z,22.55
2018-08-24T15:03:33.575Z,22.71
2018-08-24T15:06:02.977Z,22.94
2018-08-24T15:08:32.382Z,23.08
2018-08-24T15:11:01.783Z,23.47
2018-08-24T15:13:31.183Z,23.59
2018-08-24T15:16:00.394Z,23.71
2018-08-24T15:18:29.886Z,23.70
2018-08-24T15:20:59.287Z,23.82
2018-08-24T15:23:28.791Z,23.86
2018-08-24T15:25:58.057Z,23.64
2018-08-24T15:28:27.390Z,23.67
2018-08-24T15:30:56.792Z,23.86
2018-08-24T15:33:26.094Z,23.70
2018-08-24T15:35:55.497Z,23.40
2018-08-24T15:38:24.898Z,23.40
2018-08-24T15:40:54.202Z,23.45
2018-08-24T15:43:23.700Z,23.49
2018-08-24T15:45:53.205Z,23.38
2018-08-24T15:48:22.609Z,23.35
2018-08-24T15:50:52.007Z,23.41
2018-08-24T15:53:21.411Z,23.41
2018-08-24T15:55:50.812Z,23.41
2018-08-24T15:58:20.214Z,23.36
2018-08-24T16:00:49.719Z,23.34
2018-08-24T16:03:18.936Z,23.49
2018-08-24T16:05:48.275Z,23.57
2018-08-24T16:08:17.822Z,23.60
2018-08-24T16:10:47.634Z,23.61
2018-08-24T16:13:17.139Z,23.64
2018-08-24T16:15:46.541Z,23.80
2018-08-24T16:18:21.166Z,23.58
2018-08-24T16:20:50.697Z,23.16
2018-08-24T16:23:20.007Z,23.07
2018-08-24T16:25:49.810Z,23.04
2018-08-24T16:28:19.958Z,23.15
2018-08-24T16:30:49.218Z,23.29
2018-08-24T16:33:19.014Z,23.16
2018-08-24T16:35:48.211Z,23.34
2018-08-24T16:38:18.019Z,23.46
2018-08-24T16:40:47.238Z,23.20
2018-08-24T16:43:16.524Z,22.98
2018-08-24T16:45:45.723Z,22.94
2018-08-24T16:48:14.931Z,23.14
2018-08-24T16:50:44.313Z,23.12
2018-08-24T16:53:13.616Z,23.11
2018-08-24T16:55:42.913Z,23.38
2018-08-24T16:58:12.290Z,23.43
2018-08-24T17:00:41.717Z,22.80
2018-08-24T17:03:11.182Z,22.32
2018-08-24T17:05:40.624Z,22.06
2018-08-24T17:08:09.922Z,21.91
2018-08-24T17:10:39.324Z,22.12
2018-08-24T17:13:08.727Z,22.23
2018-08-24T17:15:38.288Z,22.16
2018-08-24T17:18:08.043Z,22.37
2018-08-24T17:20:37.751Z,22.22
2018-08-24T17:23:07.159Z,22.20
2018-08-24T17:25:36.564Z,22.05
2018-08-24T17:28:05.956Z,22.09
2018-08-24T17:30:35.258Z,22.22
2018-08-24T17:33:04.762Z,22.01
2018-08-24T17:35:34.178Z,22.16
2018-08-24T17:38:03.670Z,22.14
2018-08-24T17:40:33.172Z,22.18
2018-08-24T17:43:02.576Z,22.24
2018-08-24T17:45:31.978Z,22.25
2018-08-24T17:48:01.420Z,22.15
2018-08-24T17:50:30.944Z,22.19
2018-08-24T17:53:00.284Z,22.42
2018-08-24T17:55:29.689Z,22.31
2018-08-24T17:57:59.090Z,22.31
2018-08-24T18:00:28.492Z,22.16
2018-08-24T18:02:57.999Z,22.48
2018-08-24T18:05:27.402Z,22.35
2018-08-24T18:07:56.905Z,22.32
2018-08-24T18:10:26.220Z,22.43
2018-08-24T18:12:55.605Z,22.41
2018-08-24T18:15:25.064Z,22.51
2018-08-24T18:17:54.577Z,22.08
2018-08-24T18:20:23.914Z,22.17
2018-08-24T18:22:53.314Z,22.00
2018-08-24T18:25:22.829Z,22.04
2018-08-24T18:27:52.225Z,22.14
2018-08-24T18:30:21.583Z,22.12
2018-08-24T18:32:51.026Z,22.04
2018-08-24T18:35:20.430Z,22.19
2018-08-24T18:37:49.931Z,22.16
2018-08-24T18:40:19.436Z,22.12
2018-08-24T18:42:48.915Z,22.08
2018-08-24T18:45:19.305Z,22.03
2018-08-24T18:47:55.321Z,21.94
2018-08-24T18:50:24.725Z,21.89
2018-08-24T18:52:54.128Z,21.85
2018-08-24T18:55:23.807Z,21.80
2018-08-24T18:57:53.713Z,21.78
2018-08-24T19:00:23.183Z,21.71
2018-08-24T19:02:52.664Z,21.71
2018-08-24T19:05:22.084Z,21.71
2018-08-24T19:07:55.585Z,21.71
2018-08-24T19:10:25.064Z,21.69
2018-08-24T19:12:54.463Z,21.69
2018-08-24T19:15:23.804Z,21.59
2018-08-24T19:17:59.002Z,21.55
2018-08-24T19:20:33.530Z,21.52
2018-08-24T19:23:03.233Z,21.46
2018-08-24T19:25:32.776Z,21.41
2018-08-24T19:28:07.540Z,21.37
2018-08-24T19:30:36.968Z,21.27
2018-08-24T19:33:06.575Z,21.21
2018-08-24T19:35:35.977Z,21.19
2018-08-24T19:38:05.584Z,21.11
2018-08-24T19:40:40.566Z,21.13
2018-08-24T19:43:10.257Z,21.09
2018-08-24T19:45:39.628Z,21.09
2018-08-24T19:48:14.181Z,20.99
2018-08-24T19:50:43.657Z,20.94
2018-08-24T19:53:12.896Z,20.98
2018-08-24T19:55:42.253Z,20.93
2018-08-24T19:58:16.776Z,20.94
2018-08-24T20:00:46.226Z,20.85
2018-08-24T20:03:15.884Z,20.83
2018-08-24T20:05:50.618Z,20.82
2018-08-24T20:08:25.635Z,20.68
2018-08-24T20:10:55.111Z,20.67
2018-08-24T20:13:24.553Z,20.72
2018-08-24T20:15:59.278Z,20.59
2018-08-24T20:18:28.749Z,20.57
2018-08-24T20:20:58.185Z,20.59
2018-08-24T20:23:27.689Z,20.57
2018-08-24T20:25:57.195Z,20.55
2018-08-24T20:28:26.600Z,20.56
2018-08-24T20:30:56.679Z,20.46
2018-08-24T20:33:26.208Z,20.51
2018-08-24T20:35:55.500Z,20.52
2018-08-24T20:38:25.026Z,20.47
2018-08-24T20:40:54.424Z,20.48
2018-08-24T20:43:23.832Z,20.50
2018-08-24T20:45:53.134Z,20.51
2018-08-24T20:48:22.530Z,20.47
2018-08-24T20:50:52.033Z,20.46
2018-08-24T20:53:21.436Z,20.44
2018-08-24T20:55:50.841Z,20.37
2018-08-24T20:58:20.343Z,20.34
2018-08-24T21:00:50.194Z,20.22
2018-08-24T21:03:20.112Z,20.17
2018-08-24T21:05:49.917Z,20.10
2018-08-24T21:08:19.400Z,20.06
2018-08-24T21:10:49.156Z,20.13
2018-08-24T21:13:18.897Z,20.14
2018-08-24T21:15:48.561Z,20.15
2018-08-24T21:18:18.837Z,20.07
2018-08-24T21:20:48.452Z,20.02
2018-08-24T21:23:18.036Z,19.98
2018-08-24T21:25:47.665Z,19.91
2018-08-24T21:28:17.262Z,19.81
2018-08-24T21:30:46.837Z,19.97
2018-08-24T21:33:16.482Z,19.99
2018-08-24T21:35:46.190Z,20.02
2018-08-24T21:38:15.933Z,20.01
2018-08-24T21:40:45.516Z,19.93
2018-08-24T21:43:15.415Z,19.83
2018-08-24T21:45:45.351Z,19.91
2018-08-24T21:48:14.987Z,19.88
2018-08-24T21:50:44.537Z,19.02
2018-08-24T21:53:14.252Z,19.89
2018-08-24T21:55:43.763Z,19.80
2018-08-24T21:58:13.269Z,19.75
2018-08-24T22:00:43.231Z,19.76
2018-08-24T22:03:13.895Z,19.78
2018-08-24T22:05:43.412Z,19.82
2018-08-24T22:08:13.018Z,19.87
2018-08-24T22:10:42.326Z,19.88
2018-08-24T22:13:11.787Z,19.82
2018-08-24T22:15:41.277Z,19.83
2018-08-24T22:18:10.831Z,19.85
2018-08-24T22:20:40.540Z,19.88
2018-08-24T22:23:09.840Z,19.86
2018-08-24T22:25:39.240Z,19.76
2018-08-24T22:28:08.525Z,19.67
2018-08-24T22:30:37.790Z,19.59
2018-08-24T22:33:07.477Z,19.56
2018-08-24T22:35:37.007Z,19.47
2018-08-24T22:38:06.879Z,19.51
2018-08-24T22:40:37.192Z,19.50
2018-08-24T22:43:10.892Z,19.53
2018-08-24T22:45:40.347Z,19.54
2018-08-24T22:48:09.867Z,19.55
2018-08-24T22:50:39.510Z,19.41
2018-08-24T22:53:08.931Z,19.34
2018-08-24T22:55:38.414Z,19.37
2018-08-24T22:58:07.818Z,19.45
2018-08-24T23:00:37.274Z,19.44
2018-08-24T23:03:06.831Z,19.44
2018-08-24T23:05:38.486Z,19.41
2018-08-24T23:08:09.110Z,19.37
2018-08-24T23:10:38.514Z,19.39
2018-08-24T23:13:08.124Z,19.41
2018-08-24T23:15:37.467Z,19.44
2018-08-24T23:18:07.334Z,19.43
2018-08-24T23:20:36.900Z,19.36
2018-08-24T23:23:06.545Z,19.35
2018-08-24T23:25:36.055Z,19.35
2018-08-24T23:28:08.524Z,19.33
2018-08-24T23:30:37.989Z,19.35
2018-08-24T23:33:07.533Z,19.40
2018-08-24T23:35:36.998Z,19.43
2018-08-24T23:38:06.543Z,19.36
2018-08-24T23:40:36.047Z,19.40
2018-08-24T23:43:05.651Z,19.34
2018-08-24T23:45:35.075Z,19.37
2018-08-24T23:48:04.515Z,19.36
2018-08-24T23:50:33.859Z,19.40
2018-08-24T23:53:03.215Z,19.39
2018-08-24T23:55:32.460Z,19.36
2018-08-24T23:58:01.962Z,19.40
